sensor_id;sensor_type;location;lat;lon;timestamp;P1;P2;P0
24012;PMS7003;12220;50.194;18.948;2022-12-18T00:00:29;30;25;15
24012;PMS7003;12220;50.194;18.948;2022-12-18T00:02:38;27;21;11
24012;PMS7003;12220;50.194;18.948;2022-12-18T00:04:40;23;19;11
24012;PMS7003;12220;50.194;18.948;2022-12-18T00:06:41;40;29;17
24012;PMS7003;12220;50.194;18.948;2022-12-18T00:08:43;43;30;15
24012;PMS7003;12220;50.194;18.948;2022-12-18T00:10:54;33;21;11
24012;PMS7003;12220;50.194;18.948;2022-12-18T00:13:01;29;24;12
24012;PMS7003;12220;50.194;18.948;2022-12-18T00:15:05;28;23;11
24012;PMS7003;12220;50.194;18.948;2022-12-18T00:17:06;19;13;9
24012;PMS7003;12220;50.194;18.948;2022-12-18T00:19:10;27;24;13
24012;PMS7003;12220;50.194;18.948;2022-12-18T00:21:12;47;33;16
24012;PMS7003;12220;50.194;18.948;2022-12-18T00:23:15;31;23;13
24012;PMS7003;12220;50.194;18.948;2022-12-18T00:25:16;31;22;13
24012;PMS7003;12220;50.194;18.948;2022-12-18T00:27:25;25;22;11
24012;PMS7003;12220;50.194;18.948;2022-12-18T00:29:26;22;17;9
24012;PMS7003;12220;50.194;18.948;2022-12-18T00:31:27;21;16;9
24012;PMS7003;12220;50.194;18.948;2022-12-18T00:33:29;31;22;12
24012;PMS7003;12220;50.194;18.948;2022-12-18T00:35:31;26;19;10
24012;PMS7003;12220;50.194;18.948;2022-12-18T00:37:35;26;16;10
24012;PMS7003;12220;50.194;18.948;2022-12-18T00:39:37;29;20;12
24012;PMS7003;12220;50.194;18.948;2022-12-18T00:41:38;28;22;9
24012;PMS7003;12220;50.194;18.948;2022-12-18T00:44:00;24;17;11
24012;PMS7003;12220;50.194;18.948;2022-12-18T00:46:02;22;17;11
24012;PMS7003;12220;50.194;18.948;2022-12-18T00:48:04;18;16;10
24012;PMS7003;12220;50.194;18.948;2022-12-18T00:50:06;24;17;10
24012;PMS7003;12220;50.194;18.948;2022-12-18T00:52:15;23;22;11
24012;PMS7003;12220;50.194;18.948;2022-12-18T00:54:16;28;19;11
24012;PMS7003;12220;50.194;18.948;2022-12-18T00:56:18;31;22;13
24012;PMS7003;12220;50.194;18.948;2022-12-18T00:58:19;30;24;12
24012;PMS7003;12220;50.194;18.948;2022-12-18T01:00:30;25;20;12
24012;PMS7003;12220;50.194;18.948;2022-12-18T01:02:31;35;25;13
24012;PMS7003;12220;50.194;18.948;2022-12-18T01:04:33;28;21;13
24012;PMS7003;12220;50.194;18.948;2022-12-18T01:06:35;31;19;12
24012;PMS7003;12220;50.194;18.948;2022-12-18T01:08:46;21;19;9
24012;PMS7003;12220;50.194;18.948;2022-12-18T01:10:47;14;14;11
24012;PMS7003;12220;50.194;18.948;2022-12-18T01:12:50;20;18;10
24012;PMS7003;12220;50.194;18.948;2022-12-18T01:14:52;20;16;8
24012;PMS7003;12220;50.194;18.948;2022-12-18T01:17:01;27;22;8
24012;PMS7003;12220;50.194;18.948;2022-12-18T01:19:04;17;13;7
24012;PMS7003;12220;50.194;18.948;2022-12-18T01:21:09;21;16;9
24012;PMS7003;12220;50.194;18.948;2022-12-18T01:23:16;17;16;9
24012;PMS7003;12220;50.194;18.948;2022-12-18T01:25:17;26;18;11
24012;PMS7003;12220;50.194;18.948;2022-12-18T01:27:19;27;21;10
24012;PMS7003;12220;50.194;18.948;2022-12-18T01:29:20;25;19;10
24012;PMS7003;12220;50.194;18.948;2022-12-18T01:31:22;29;19;10
24012;PMS7003;12220;50.194;18.948;2022-12-18T01:33:32;25;18;13
24012;PMS7003;12220;50.194;18.948;2022-12-18T01:35:33;23;17;8
24012;PMS7003;12220;50.194;18.948;2022-12-18T01:37:42;19;16;10
24012;PMS7003;12220;50.194;18.948;2022-12-18T01:39:44;23;19;11
24012;PMS7003;12220;50.194;18.948;2022-12-18T01:41:47;25;19;10
24012;PMS7003;12220;50.194;18.948;2022-12-18T01:46:30;28;23;12
24012;PMS7003;12220;50.194;18.948;2022-12-18T01:48:32;24;21;12
24012;PMS7003;12220;50.194;18.948;2022-12-18T01:50:35;31;25;12
24012;PMS7003;12220;50.194;18.948;2022-12-18T01:52:43;28;23;12
24012;PMS7003;12220;50.194;18.948;2022-12-18T01:54:50;28;23;14
24012;PMS7003;12220;50.194;18.948;2022-12-18T01:56:53;24;18;10
24012;PMS7003;12220;50.194;18.948;2022-12-18T01:58:58;19;19;11
24012;PMS7003;12220;50.194;18.948;2022-12-18T02:01:07;20;17;11
24012;PMS7003;12220;50.194;18.948;2022-12-18T02:03:09;20;18;10
24012;PMS7003;12220;50.194;18.948;2022-12-18T02:05:11;24;19;11
24012;PMS7003;12220;50.194;18.948;2022-12-18T02:09:33;20;17;10
24012;PMS7003;12220;50.194;18.948;2022-12-18T02:11:46;24;23;11
24012;PMS7003;12220;50.194;18.948;2022-12-18T02:14:04;33;28;13
24012;PMS7003;12220;50.194;18.948;2022-12-18T02:18:47;41;31;17
24012;PMS7003;12220;50.194;18.948;2022-12-18T02:20:59;31;26;14
24012;PMS7003;12220;50.194;18.948;2022-12-18T02:25:40;30;25;13
24012;PMS7003;12220;50.194;18.948;2022-12-18T02:27:54;42;28;15
24012;PMS7003;12220;50.194;18.948;2022-12-18T02:30:01;37;28;16
24012;PMS7003;12220;50.194;18.948;2022-12-18T02:32:06;31;23;12
24012;PMS7003;12220;50.194;18.948;2022-12-18T02:34:13;44;32;17
24012;PMS7003;12220;50.194;18.948;2022-12-18T02:36:17;41;26;15
24012;PMS7003;12220;50.194;18.948;2022-12-18T02:38:31;38;28;19
24012;PMS7003;12220;50.194;18.948;2022-12-18T02:40:34;42;32;16
24012;PMS7003;12220;50.194;18.948;2022-12-18T02:42:38;42;31;16
24012;PMS7003;12220;50.194;18.948;2022-12-18T02:44:43;34;29;17
24012;PMS7003;12220;50.194;18.948;2022-12-18T02:46:49;34;20;10
24012;PMS7003;12220;50.194;18.948;2022-12-18T02:48:52;28;23;15
24012;PMS7003;12220;50.194;18.948;2022-12-18T02:51:06;18;16;10
24012;PMS7003;12220;50.194;18.948;2022-12-18T03:06:57;17;17;11
24012;PMS7003;12220;50.194;18.948;2022-12-18T03:09:04;27;24;13
24012;PMS7003;12220;50.194;18.948;2022-12-18T03:11:13;29;22;12
24012;PMS7003;12220;50.194;18.948;2022-12-18T03:13:20;31;17;11
24012;PMS7003;12220;50.194;18.948;2022-12-18T03:15:25;21;16;13
24012;PMS7003;12220;50.194;18.948;2022-12-18T03:17:40;25;21;14
24012;PMS7003;12220;50.194;18.948;2022-12-18T03:19:46;21;18;12
24012;PMS7003;12220;50.194;18.948;2022-12-18T03:21:51;26;23;11
24012;PMS7003;12220;50.194;18.948;2022-12-18T03:23:55;22;17;11
24012;PMS7003;12220;50.194;18.948;2022-12-18T03:25:59;38;22;12
24012;PMS7003;12220;50.194;18.948;2022-12-18T03:28:04;25;21;10
24012;PMS7003;12220;50.194;18.948;2022-12-18T03:32:39;32;24;10
24012;PMS7003;12220;50.194;18.948;2022-12-18T03:34:45;31;24;14
24012;PMS7003;12220;50.194;18.948;2022-12-18T03:36:51;24;16;7
24012;PMS7003;12220;50.194;18.948;2022-12-18T03:38:52;31;22;13
24012;PMS7003;12220;50.194;18.948;2022-12-18T03:43:10;18;18;13
24012;PMS7003;12220;50.194;18.948;2022-12-18T03:45:22;36;28;11
24012;PMS7003;12220;50.194;18.948;2022-12-18T03:49:47;23;19;11
24012;PMS7003;12220;50.194;18.948;2022-12-18T03:51:57;32;20;12
24012;PMS7003;12220;50.194;18.948;2022-12-18T03:54:06;23;17;10
24012;PMS7003;12220;50.194;18.948;2022-12-18T03:58:37;38;27;15
24012;PMS7003;12220;50.194;18.948;2022-12-18T04:07:56;30;22;12
24012;PMS7003;12220;50.194;18.948;2022-12-18T04:09:59;28;22;11
24012;PMS7003;12220;50.194;18.948;2022-12-18T04:12:04;19;18;8
24012;PMS7003;12220;50.194;18.948;2022-12-18T04:14:05;28;24;14
24012;PMS7003;12220;50.194;18.948;2022-12-18T04:16:07;35;25;11
24012;PMS7003;12220;50.194;18.948;2022-12-18T04:18:13;39;28;15
24012;PMS7003;12220;50.194;18.948;2022-12-18T04:20:14;26;22;11
24012;PMS7003;12220;50.194;18.948;2022-12-18T04:22:16;40;29;15
24012;PMS7003;12220;50.194;18.948;2022-12-18T04:24:18;30;22;14
24012;PMS7003;12220;50.194;18.948;2022-12-18T04:26:28;32;30;16
24012;PMS7003;12220;50.194;18.948;2022-12-18T04:28:29;33;28;14
24012;PMS7003;12220;50.194;18.948;2022-12-18T04:30:31;31;22;11
24012;PMS7003;12220;50.194;18.948;2022-12-18T04:32:33;39;30;16
24012;PMS7003;12220;50.194;18.948;2022-12-18T04:34:43;33;23;13
24012;PMS7003;12220;50.194;18.948;2022-12-18T04:36:45;30;25;12
24012;PMS7003;12220;50.194;18.948;2022-12-18T04:38:46;34;24;13
24012;PMS7003;12220;50.194;18.948;2022-12-18T04:40:48;39;29;16
24012;PMS7003;12220;50.194;18.948;2022-12-18T04:42:59;47;25;12
24012;PMS7003;12220;50.194;18.948;2022-12-18T04:45:01;27;21;11
24012;PMS7003;12220;50.194;18.948;2022-12-18T04:47:02;26;24;14
24012;PMS7003;12220;50.194;18.948;2022-12-18T04:49:04;35;21;11
24012;PMS7003;12220;50.194;18.948;2022-12-18T04:51:15;24;18;9
24012;PMS7003;12220;50.194;18.948;2022-12-18T04:53:16;33;22;13
24012;PMS7003;12220;50.194;18.948;2022-12-18T04:55:17;41;29;14
24012;PMS7003;12220;50.194;18.948;2022-12-18T04:57:19;30;22;13
24012;PMS7003;12220;50.194;18.948;2022-12-18T04:59:30;28;19;11
24012;PMS7003;12220;50.194;18.948;2022-12-18T05:01:34;21;18;9
24012;PMS7003;12220;50.194;18.948;2022-12-18T05:03:36;29;23;12
24012;PMS7003;12220;50.194;18.948;2022-12-18T05:05:38;28;19;11
24012;PMS7003;12220;50.194;18.948;2022-12-18T05:07:45;34;25;13
24012;PMS7003;12220;50.194;18.948;2022-12-18T05:09:46;29;24;11
24012;PMS7003;12220;50.194;18.948;2022-12-18T05:11:48;31;22;14
24012;PMS7003;12220;50.194;18.948;2022-12-18T05:13:49;40;26;14
24012;PMS7003;12220;50.194;18.948;2022-12-18T05:15:51;30;24;12
24012;PMS7003;12220;50.194;18.948;2022-12-18T05:17:53;30;23;13
24012;PMS7003;12220;50.194;18.948;2022-12-18T05:19:54;31;19;9
24012;PMS7003;12220;50.194;18.948;2022-12-18T05:21:58;29;20;12
24012;PMS7003;12220;50.194;18.948;2022-12-18T05:24:00;29;18;9
24012;PMS7003;12220;50.194;18.948;2022-12-18T05:26:02;30;21;5
24012;PMS7003;12220;50.194;18.948;2022-12-18T05:28:05;25;23;13
24012;PMS7003;12220;50.194;18.948;2022-12-18T05:30:14;28;23;12
24012;PMS7003;12220;50.194;18.948;2022-12-18T05:32:16;21;17;9
24012;PMS7003;12220;50.194;18.948;2022-12-18T05:34:18;23;19;8
24012;PMS7003;12220;50.194;18.948;2022-12-18T05:36:19;26;20;11
24012;PMS7003;12220;50.194;18.948;2022-12-18T05:38:30;28;25;10
24012;PMS7003;12220;50.194;18.948;2022-12-18T05:40:32;20;18;9
24012;PMS7003;12220;50.194;18.948;2022-12-18T05:42:34;24;19;9
24012;PMS7003;12220;50.194;18.948;2022-12-18T05:44:35;27;19;9
24012;PMS7003;12220;50.194;18.948;2022-12-18T05:46:45;31;23;13
24012;PMS7003;12220;50.194;18.948;2022-12-18T05:48:47;28;21;10
24012;PMS7003;12220;50.194;18.948;2022-12-18T05:50:51;20;14;7
24012;PMS7003;12220;50.194;18.948;2022-12-18T05:52:52;25;21;11
24012;PMS7003;12220;50.194;18.948;2022-12-18T05:55:01;25;21;10
24012;PMS7003;12220;50.194;18.948;2022-12-18T05:57:02;25;13;8
24012;PMS7003;12220;50.194;18.948;2022-12-18T05:59:03;25;18;11
24012;PMS7003;12220;50.194;18.948;2022-12-18T06:01:06;22;15;8
24012;PMS7003;12220;50.194;18.948;2022-12-18T06:03:16;23;21;10
24012;PMS7003;12220;50.194;18.948;2022-12-18T06:05:17;27;19;10
24012;PMS7003;12220;50.194;18.948;2022-12-18T06:07:19;26;19;11
24012;PMS7003;12220;50.194;18.948;2022-12-18T06:09:20;25;18;9
24012;PMS7003;12220;50.194;18.948;2022-12-18T06:11:31;30;21;11
24012;PMS7003;12220;50.194;18.948;2022-12-18T06:13:32;26;19;11
24012;PMS7003;12220;50.194;18.948;2022-12-18T06:15:36;35;23;13
24012;PMS7003;12220;50.194;18.948;2022-12-18T06:17:37;28;20;12
24012;PMS7003;12220;50.194;18.948;2022-12-18T06:19:46;23;19;10
24012;PMS7003;12220;50.194;18.948;2022-12-18T06:21:48;26;20;12
24012;PMS7003;12220;50.194;18.948;2022-12-18T06:23:50;26;18;11
24012;PMS7003;12220;50.194;18.948;2022-12-18T06:25:52;30;22;12
24012;PMS7003;12220;50.194;18.948;2022-12-18T06:28:01;25;21;11
24012;PMS7003;12220;50.194;18.948;2022-12-18T06:30:03;28;21;11
24012;PMS7003;12220;50.194;18.948;2022-12-18T06:32:05;26;24;12
24012;PMS7003;12220;50.194;18.948;2022-12-18T06:34:07;25;16;9
24012;PMS7003;12220;50.194;18.948;2022-12-18T06:36:17;19;16;9
24012;PMS7003;12220;50.194;18.948;2022-12-18T06:38:18;28;19;9
24012;PMS7003;12220;50.194;18.948;2022-12-18T06:40:19;28;19;9
24012;PMS7003;12220;50.194;18.948;2022-12-18T06:42:21;31;23;12
24012;PMS7003;12220;50.194;18.948;2022-12-18T06:44:32;27;17;12
24012;PMS7003;12220;50.194;18.948;2022-12-18T06:46:33;26;16;9
24012;PMS7003;12220;50.194;18.948;2022-12-18T06:48:34;29;23;10
24012;PMS7003;12220;50.194;18.948;2022-12-18T06:50:36;24;17;9
24012;PMS7003;12220;50.194;18.948;2022-12-18T06:52:47;27;19;11
24012;PMS7003;12220;50.194;18.948;2022-12-18T06:54:48;31;21;11
24012;PMS7003;12220;50.194;18.948;2022-12-18T06:56:50;32;23;12
24012;PMS7003;12220;50.194;18.948;2022-12-18T06:58:51;29;25;15
24012;PMS7003;12220;50.194;18.948;2022-12-18T07:00:53;30;23;13
24012;PMS7003;12220;50.194;18.948;2022-12-18T07:02:57;23;20;11
24012;PMS7003;12220;50.194;18.948;2022-12-18T07:04:58;29;25;13
24012;PMS7003;12220;50.194;18.948;2022-12-18T07:07:02;33;26;14
24012;PMS7003;12220;50.194;18.948;2022-12-18T07:09:03;29;23;10
24012;PMS7003;12220;50.194;18.948;2022-12-18T07:11:05;31;28;15
24012;PMS7003;12220;50.194;18.948;2022-12-18T07:13:06;30;21;11
24012;PMS7003;12220;50.194;18.948;2022-12-18T07:15:17;23;21;10
24012;PMS7003;12220;50.194;18.948;2022-12-18T07:17:20;27;20;11
24012;PMS7003;12220;50.194;18.948;2022-12-18T07:19:21;42;22;14
24012;PMS7003;12220;50.194;18.948;2022-12-18T07:21:23;29;24;8
24012;PMS7003;12220;50.194;18.948;2022-12-18T07:23:33;25;20;14
24012;PMS7003;12220;50.194;18.948;2022-12-18T07:25:36;35;24;13
24012;PMS7003;12220;50.194;18.948;2022-12-18T07:27:37;44;32;17
24012;PMS7003;12220;50.194;18.948;2022-12-18T07:29:39;45;29;15
24012;PMS7003;12220;50.194;18.948;2022-12-18T07:31:48;39;32;18
24012;PMS7003;12220;50.194;18.948;2022-12-18T07:33:50;39;31;13
24012;PMS7003;12220;50.194;18.948;2022-12-18T07:35:52;31;27;17
24012;PMS7003;12220;50.194;18.948;2022-12-18T07:37:53;45;30;16
24012;PMS7003;12220;50.194;18.948;2022-12-18T07:40:03;38;29;18
24012;PMS7003;12220;50.194;18.948;2022-12-18T07:42:05;34;30;12
24012;PMS7003;12220;50.194;18.948;2022-12-18T07:44:18;38;33;17
24012;PMS7003;12220;50.194;18.948;2022-12-18T07:46:19;39;27;17
24012;PMS7003;12220;50.194;18.948;2022-12-18T07:48:23;43;30;17
24012;PMS7003;12220;50.194;18.948;2022-12-18T07:50:25;32;25;14
24012;PMS7003;12220;50.194;18.948;2022-12-18T07:52:26;31;28;13
24012;PMS7003;12220;50.194;18.948;2022-12-18T07:54:27;33;29;15
24012;PMS7003;12220;50.194;18.948;2022-12-18T07:56:39;24;20;8
24012;PMS7003;12220;50.194;18.948;2022-12-18T07:58:40;17;17;9
24012;PMS7003;12220;50.194;18.948;2022-12-18T08:00:41;28;23;12
24012;PMS7003;12220;50.194;18.948;2022-12-18T08:02:43;25;20;12
24012;PMS7003;12220;50.194;18.948;2022-12-18T08:04:57;28;20;12
24012;PMS7003;12220;50.194;18.948;2022-12-18T08:06:59;33;21;10
24012;PMS7003;12220;50.194;18.948;2022-12-18T08:09:00;31;23;13
24012;PMS7003;12220;50.194;18.948;2022-12-18T08:11:01;26;20;8
24012;PMS7003;12220;50.194;18.948;2022-12-18T08:13:09;27;16;10
24012;PMS7003;12220;50.194;18.948;2022-12-18T08:15:10;21;18;10
24012;PMS7003;12220;50.194;18.948;2022-12-18T08:17:12;40;24;11
24012;PMS7003;12220;50.194;18.948;2022-12-18T08:19:13;28;22;11
24012;PMS7003;12220;50.194;18.948;2022-12-18T08:21:26;28;19;10
24012;PMS7003;12220;50.194;18.948;2022-12-18T08:23:28;24;20;12
24012;PMS7003;12220;50.194;18.948;2022-12-18T08:25:30;29;24;12
24012;PMS7003;12220;50.194;18.948;2022-12-18T08:27:31;28;18;10
24012;PMS7003;12220;50.194;18.948;2022-12-18T08:29:40;39;28;13
24012;PMS7003;12220;50.194;18.948;2022-12-18T08:31:41;28;24;13
24012;PMS7003;12220;50.194;18.948;2022-12-18T08:33:43;33;27;15
24012;PMS7003;12220;50.194;18.948;2022-12-18T08:35:44;23;20;12
24012;PMS7003;12220;50.194;18.948;2022-12-18T08:37:46;31;21;11
24012;PMS7003;12220;50.194;18.948;2022-12-18T08:39:47;26;20;11
24012;PMS7003;12220;50.194;18.948;2022-12-18T08:41:49;29;19;12
24012;PMS7003;12220;50.194;18.948;2022-12-18T08:44:02;27;24;13
24012;PMS7003;12220;50.194;18.948;2022-12-18T08:46:15;38;29;15
24012;PMS7003;12220;50.194;18.948;2022-12-18T08:48:17;36;24;13
24012;PMS7003;12220;50.194;18.948;2022-12-18T08:50:18;40;30;16
24012;PMS7003;12220;50.194;18.948;2022-12-18T08:52:20;27;24;14
24012;PMS7003;12220;50.194;18.948;2022-12-18T08:54:29;30;26;17
24012;PMS7003;12220;50.194;18.948;2022-12-18T08:56:53;27;22;13
24012;PMS7003;12220;50.194;18.948;2022-12-18T09:01:00;38;26;15
24012;PMS7003;12220;50.194;18.948;2022-12-18T09:03:03;37;27;18
24012;PMS7003;12220;50.194;18.948;2022-12-18T09:05:04;40;33;15
24012;PMS7003;12220;50.194;18.948;2022-12-18T09:07:06;41;31;16
24012;PMS7003;12220;50.194;18.948;2022-12-18T09:09:08;33;27;14
24012;PMS7003;12220;50.194;18.948;2022-12-18T09:11:18;47;33;17
24012;PMS7003;12220;50.194;18.948;2022-12-18T09:13:33;43;28;16
24012;PMS7003;12220;50.194;18.948;2022-12-18T09:15:39;36;28;18
24012;PMS7003;12220;50.194;18.948;2022-12-18T09:17:46;38;32;17
24012;PMS7003;12220;50.194;18.948;2022-12-18T09:20:00;42;33;19
24012;PMS7003;12220;50.194;18.948;2022-12-18T09:22:01;45;35;22
24012;PMS7003;12220;50.194;18.948;2022-12-18T09:24:03;55;39;21
24012;PMS7003;12220;50.194;18.948;2022-12-18T09:28:42;42;31;18
24012;PMS7003;12220;50.194;18.948;2022-12-18T09:30:47;47;38;21
24012;PMS7003;12220;50.194;18.948;2022-12-18T09:32:50;44;35;19
24012;PMS7003;12220;50.194;18.948;2022-12-18T09:34:51;40;31;18
24012;PMS7003;12220;50.194;18.948;2022-12-18T09:36:54;47;34;20
24012;PMS7003;12220;50.194;18.948;2022-12-18T09:39:02;50;37;23
24012;PMS7003;12220;50.194;18.948;2022-12-18T09:43:22;54;35;19
24012;PMS7003;12220;50.194;18.948;2022-12-18T09:45:30;47;36;23
24012;PMS7003;12220;50.194;18.948;2022-12-18T09:47:37;46;37;22
24012;PMS7003;12220;50.194;18.948;2022-12-18T09:49:44;44;35;21
24012;PMS7003;12220;50.194;18.948;2022-12-18T09:53:59;47;36;20
24012;PMS7003;12220;50.194;18.948;2022-12-18T09:56:05;43;34;20
24012;PMS7003;12220;50.194;18.948;2022-12-18T10:00:35;43;35;24
24012;PMS7003;12220;50.194;18.948;2022-12-18T10:02:37;52;39;23
24012;PMS7003;12220;50.194;18.948;2022-12-18T10:04:38;46;34;17
24012;PMS7003;12220;50.194;18.948;2022-12-18T10:08:59;50;37;21
24012;PMS7003;12220;50.194;18.948;2022-12-18T10:13:36;55;34;16
24012;PMS7003;12220;50.194;18.948;2022-12-18T10:20:44;50;37;22
24012;PMS7003;12220;50.194;18.948;2022-12-18T10:27:42;46;32;19
24012;PMS7003;12220;50.194;18.948;2022-12-18T10:29:44;38;31;20
24012;PMS7003;12220;50.194;18.948;2022-12-18T10:31:47;44;33;16
24012;PMS7003;12220;50.194;18.948;2022-12-18T10:33:48;31;26;14
24012;PMS7003;12220;50.194;18.948;2022-12-18T10:35:58;40;32;18
24012;PMS7003;12220;50.194;18.948;2022-12-18T10:40:13;40;34;21
24012;PMS7003;12220;50.194;18.948;2022-12-18T10:42:17;42;34;16
24012;PMS7003;12220;50.194;18.948;2022-12-18T10:44:20;33;29;17
24012;PMS7003;12220;50.194;18.948;2022-12-18T10:46:23;40;32;18
24012;PMS7003;12220;50.194;18.948;2022-12-18T10:48:25;36;31;14
24012;PMS7003;12220;50.194;18.948;2022-12-18T10:50:32;31;21;15
24012;PMS7003;12220;50.194;18.948;2022-12-18T10:52:36;38;25;15
24012;PMS7003;12220;50.194;18.948;2022-12-18T10:54:38;35;27;17
24012;PMS7003;12220;50.194;18.948;2022-12-18T10:56:46;34;25;12
24012;PMS7003;12220;50.194;18.948;2022-12-18T11:01:20;23;18;11
24012;PMS7003;12220;50.194;18.948;2022-12-18T11:05:32;32;24;15
24012;PMS7003;12220;50.194;18.948;2022-12-18T11:16:26;39;32;16
24012;PMS7003;12220;50.194;18.948;2022-12-18T11:18:29;40;28;13
24012;PMS7003;12220;50.194;18.948;2022-12-18T11:20:34;32;27;17
24012;PMS7003;12220;50.194;18.948;2022-12-18T11:22:37;36;26;15
24012;PMS7003;12220;50.194;18.948;2022-12-18T11:24:39;34;31;16
24012;PMS7003;12220;50.194;18.948;2022-12-18T11:26:41;27;23;13
24012;PMS7003;12220;50.194;18.948;2022-12-18T11:28:47;37;30;18
24012;PMS7003;12220;50.194;18.948;2022-12-18T11:31:37;30;25;14
24012;PMS7003;12220;50.194;18.948;2022-12-18T11:37:37;35;29;16
24012;PMS7003;12220;50.194;18.948;2022-12-18T11:39:49;27;25;14
24012;PMS7003;12220;50.194;18.948;2022-12-18T11:44:19;28;27;17
24012;PMS7003;12220;50.194;18.948;2022-12-18T11:46:34;40;28;15
24012;PMS7003;12220;50.194;18.948;2022-12-18T11:50:55;29;19;11
24012;PMS7003;12220;50.194;18.948;2022-12-18T11:53:09;48;31;17
24012;PMS7003;12220;50.194;18.948;2022-12-18T11:55:21;34;30;16
24012;PMS7003;12220;50.194;18.948;2022-12-18T12:00:01;22;17;13
24012;PMS7003;12220;50.194;18.948;2022-12-18T12:02:03;35;28;15
24012;PMS7003;12220;50.194;18.948;2022-12-18T12:04:15;33;25;12
24012;PMS7003;12220;50.194;18.948;2022-12-18T12:13:25;46;34;19
24012;PMS7003;12220;50.194;18.948;2022-12-18T12:15:48;29;25;17
24012;PMS7003;12220;50.194;18.948;2022-12-18T12:20:34;38;26;17
24012;PMS7003;12220;50.194;18.948;2022-12-18T12:25:11;35;24;14
24012;PMS7003;12220;50.194;18.948;2022-12-18T12:29:54;27;25;14
24012;PMS7003;12220;50.194;18.948;2022-12-18T12:34:44;27;24;11
24012;PMS7003;12220;50.194;18.948;2022-12-18T12:37:00;36;21;11
24012;PMS7003;12220;50.194;18.948;2022-12-18T12:39:20;23;16;12
24012;PMS7003;12220;50.194;18.948;2022-12-18T12:41:25;30;27;14
24012;PMS7003;12220;50.194;18.948;2022-12-18T12:46:08;27;21;15
24012;PMS7003;12220;50.194;18.948;2022-12-18T12:50:27;28;18;12
24012;PMS7003;12220;50.194;18.948;2022-12-18T12:57:41;22;17;12
24012;PMS7003;12220;50.194;18.948;2022-12-18T13:02:10;23;20;9
24012;PMS7003;12220;50.194;18.948;2022-12-18T13:04:31;23;17;10
24012;PMS7003;12220;50.194;18.948;2022-12-18T14:02:00;27;23;14
24012;PMS7003;12220;50.194;18.948;2022-12-18T14:04:17;38;31;17
24012;PMS7003;12220;50.194;18.948;2022-12-18T14:06:23;43;34;20
24012;PMS7003;12220;50.194;18.948;2022-12-18T14:08:30;38;29;17
24012;PMS7003;12220;50.194;18.948;2022-12-18T14:10:40;31;24;19
24012;PMS7003;12220;50.194;18.948;2022-12-18T14:12:49;49;36;20
24012;PMS7003;12220;50.194;18.948;2022-12-18T14:14:57;46;37;22
24012;PMS7003;12220;50.194;18.948;2022-12-18T14:17:02;33;30;18
24012;PMS7003;12220;50.194;18.948;2022-12-18T14:19:14;38;31;18
24012;PMS7003;12220;50.194;18.948;2022-12-18T14:25:39;47;34;20
24012;PMS7003;12220;50.194;18.948;2022-12-18T14:27:49;53;38;22
24012;PMS7003;12220;50.194;18.948;2022-12-18T14:29:56;57;40;23
24012;PMS7003;12220;50.194;18.948;2022-12-18T14:34:08;46;35;21
24012;PMS7003;12220;50.194;18.948;2022-12-18T14:36:18;51;39;24
24012;PMS7003;12220;50.194;18.948;2022-12-18T14:38:27;45;36;23
24012;PMS7003;12220;50.194;18.948;2022-12-18T14:47:38;49;38;24
24012;PMS7003;12220;50.194;18.948;2022-12-18T14:49:44;48;39;25
24012;PMS7003;12220;50.194;18.948;2022-12-18T14:51:49;50;40;23
24012;PMS7003;12220;50.194;18.948;2022-12-18T14:56:29;41;32;21
24012;PMS7003;12220;50.194;18.948;2022-12-18T14:58:33;48;33;21
24012;PMS7003;12220;50.194;18.948;2022-12-18T15:00:43;47;35;21
24012;PMS7003;12220;50.194;18.948;2022-12-18T15:02:50;44;32;15
24012;PMS7003;12220;50.194;18.948;2022-12-18T15:07:38;42;30;16
24012;PMS7003;12220;50.194;18.948;2022-12-18T15:46:27;25;22;15
24012;PMS7003;12220;50.194;18.948;2022-12-18T15:48:29;29;25;13
24012;PMS7003;12220;50.194;18.948;2022-12-18T15:50:31;36;27;15
24012;PMS7003;12220;50.194;18.948;2022-12-18T15:52:34;30;28;16
24012;PMS7003;12220;50.194;18.948;2022-12-18T15:54:44;39;28;20
24012;PMS7003;12220;50.194;18.948;2022-12-18T15:57:04;40;35;20
24012;PMS7003;12220;50.194;18.948;2022-12-18T15:59:26;43;33;21
24012;PMS7003;12220;50.194;18.948;2022-12-18T16:01:28;36;30;18
24012;PMS7003;12220;50.194;18.948;2022-12-18T16:03:32;43;33;20
24012;PMS7003;12220;50.194;18.948;2022-12-18T16:05:33;43;30;18
24012;PMS7003;12220;50.194;18.948;2022-12-18T16:07:41;30;29;19
24012;PMS7003;12220;50.194;18.948;2022-12-18T16:09:43;41;35;21
24012;PMS7003;12220;50.194;18.948;2022-12-18T16:11:44;50;41;24
24012;PMS7003;12220;50.194;18.948;2022-12-18T16:13:48;43;36;22
24012;PMS7003;12220;50.194;18.948;2022-12-18T16:15:56;48;33;20
24012;PMS7003;12220;50.194;18.948;2022-12-18T16:17:58;38;31;20
24012;PMS7003;12220;50.194;18.948;2022-12-18T16:19:59;34;30;20
24012;PMS7003;12220;50.194;18.948;2022-12-18T16:22:04;51;40;24
24012;PMS7003;12220;50.194;18.948;2022-12-18T16:24:18;53;42;23
24012;PMS7003;12220;50.194;18.948;2022-12-18T16:26:22;43;38;22
24012;PMS7003;12220;50.194;18.948;2022-12-18T16:28:26;52;40;25
24012;PMS7003;12220;50.194;18.948;2022-12-18T16:30:29;51;39;24
24012;PMS7003;12220;50.194;18.948;2022-12-18T16:32:31;46;37;23
24012;PMS7003;12220;50.194;18.948;2022-12-18T16:34:33;48;33;22
24012;PMS7003;12220;50.194;18.948;2022-12-18T16:36:35;57;45;26
24012;PMS7003;12220;50.194;18.948;2022-12-18T16:53:02;71;53;32
24012;PMS7003;12220;50.194;18.948;2022-12-18T16:55:11;76;56;35
24012;PMS7003;12220;50.194;18.948;2022-12-18T17:27:00;78;63;35
24012;PMS7003;12220;50.194;18.948;2022-12-18T17:29:04;79;64;35
24012;PMS7003;12220;50.194;18.948;2022-12-18T18:23:26;48;40;23
24012;PMS7003;12220;50.194;18.948;2022-12-18T18:25:34;46;35;22
24012;PMS7003;12220;50.194;18.948;2022-12-18T18:49:46;52;42;26
24012;PMS7003;12220;50.194;18.948;2022-12-18T18:51:48;56;44;28
24012;PMS7003;12220;50.194;18.948;2022-12-18T18:53:57;52;41;26
24012;PMS7003;12220;50.194;18.948;2022-12-18T19:00:44;58;47;28
24012;PMS7003;12220;50.194;18.948;2022-12-18T19:02:50;62;47;26
24012;PMS7003;12220;50.194;18.948;2022-12-18T19:05:02;69;49;31
24012;PMS7003;12220;50.194;18.948;2022-12-18T19:07:04;67;48;28
24012;PMS7003;12220;50.194;18.948;2022-12-18T19:09:09;64;47;28